createdAt,value
2023-05-25T00:01:01.374Z,51.40
2023-05-25T00:03:28.976Z,51.80
2023-05-25T00:05:55.544Z,51.50
2023-05-25T00:10:49.101Z,51.60
2023-05-25T00:13:15.645Z,51.50
2023-05-25T00:15:42.394Z,51.90
2023-05-25T00:18:09.147Z,51.70
2023-05-25T00:20:35.856Z,51.70
2023-05-25T00:25:29.509Z,51.40
2023-05-25T00:30:23.136Z,51.80
2023-05-25T00:32:49.703Z,51.50
2023-05-25T00:35:16.262Z,52.30
2023-05-25T00:37:42.756Z,51.60
2023-05-25T00:40:09.314Z,51.20
2023-05-25T00:42:35.823Z,51.50
2023-05-25T00:45:02.345Z,51.40
2023-05-25T00:47:28.883Z,50.80
2023-05-25T00:52:22.450Z,51.50
2023-05-25T00:54:48.977Z,51.30
2023-05-25T00:57:15.544Z,51.50
2023-05-25T00:59:42.059Z,51.30
2023-05-25T01:02:08.730Z,51.50
2023-05-25T01:04:35.285Z,51.30
2023-05-25T01:07:01.784Z,51.30
2023-05-25T01:09:28.295Z,51.30
2023-05-25T01:11:54.790Z,50.90
2023-05-25T01:14:21.272Z,51.50
2023-05-25T01:16:47.772Z,51.80
2023-05-25T01:19:14.290Z,51.50
2023-05-25T01:21:40.826Z,51.40
2023-05-25T01:24:07.381Z,51.80
2023-05-25T01:26:33.871Z,51.40
2023-05-25T01:29:00.435Z,51.50
2023-05-25T01:31:26.975Z,51.80
2023-05-25T01:33:53.540Z,51.40
2023-05-25T01:36:20.068Z,51.50
2023-05-25T01:38:46.570Z,51.50
2023-05-25T01:41:13.090Z,51.50
2023-05-25T01:43:39.575Z,51.70
2023-05-25T01:46:06.101Z,51.20
2023-05-25T01:48:32.736Z,51.80
2023-05-25T01:50:59.267Z,51.30
2023-05-25T01:55:52.830Z,51.60
2023-05-25T01:58:19.366Z,51.40
2023-05-25T02:00:45.877Z,51.20
2023-05-25T02:03:12.359Z,51.20
2023-05-25T02:05:38.887Z,51.40
2023-05-25T02:08:05.423Z,50.70
2023-05-25T02:10:31.950Z,51.30
2023-05-25T02:12:58.484Z,51.50
2023-05-25T02:15:24.996Z,51.70
2023-05-25T02:20:18.605Z,50.60
2023-05-25T02:22:45.163Z,51.30
2023-05-25T02:25:11.697Z,51.40
2023-05-25T02:27:38.260Z,51.60
2023-05-25T02:30:04.762Z,51.40
2023-05-25T02:32:31.407Z,51.50
2023-05-25T02:34:58.050Z,51.50
2023-05-25T02:37:24.646Z,51.30
2023-05-25T02:39:51.168Z,51.50
2023-05-25T02:42:17.694Z,51.30
2023-05-25T02:44:44.222Z,50.60
2023-05-25T02:49:37.863Z,51.10
2023-05-25T02:52:04.381Z,51.00
2023-05-25T02:54:30.902Z,51.50
2023-05-25T02:56:57.419Z,51.20
2023-05-25T02:59:23.949Z,51.30
2023-05-25T03:01:50.468Z,51.50
2023-05-25T03:04:16.995Z,51.30
2023-05-25T03:06:43.484Z,51.70
2023-05-25T03:09:10.016Z,51.20
2023-05-25T03:11:36.527Z,51.40
2023-05-25T03:14:03.064Z,50.50
2023-05-25T03:16:29.663Z,51.20
2023-05-25T03:18:56.198Z,50.50
2023-05-25T03:21:22.745Z,51.30
2023-05-25T03:23:49.307Z,51.10
2023-05-25T03:26:15.844Z,51.30
2023-05-25T03:28:42.337Z,51.10
2023-05-25T03:31:08.836Z,51.50
2023-05-25T03:33:35.329Z,51.20
2023-05-25T03:36:01.872Z,51.40
2023-05-25T03:38:28.379Z,51.00
2023-05-25T03:40:54.900Z,51.10
2023-05-25T03:43:21.399Z,51.10
2023-05-25T03:45:48.013Z,51.60
2023-05-25T03:48:14.578Z,51.10
2023-05-25T03:50:41.075Z,51.50
2023-05-25T03:53:07.568Z,51.00
2023-05-25T03:55:34.071Z,51.10
2023-05-25T03:58:00.559Z,51.20
2023-05-25T04:00:27.099Z,50.60
2023-05-25T04:02:53.653Z,51.10
2023-05-25T04:05:20.235Z,51.00
2023-05-25T04:07:46.730Z,51.20
2023-05-25T04:10:13.259Z,50.80
2023-05-25T04:12:39.749Z,51.20
2023-05-25T04:15:06.240Z,51.00
2023-05-25T04:17:32.793Z,51.20
2023-05-25T04:19:59.367Z,51.10
2023-05-25T04:22:25.899Z,51.30
2023-05-25T04:24:52.399Z,51.10
2023-05-25T04:29:46.010Z,51.10
2023-05-25T04:32:12.536Z,51.10
2023-05-25T04:34:39.046Z,50.80
2023-05-25T04:37:05.815Z,50.90
2023-05-25T04:39:32.389Z,51.10
2023-05-25T04:44:26.008Z,51.10
2023-05-25T04:46:52.507Z,50.70
2023-05-25T04:49:19.112Z,50.80
2023-05-25T04:51:45.646Z,51.40
2023-05-25T04:54:12.200Z,51.20
2023-05-25T04:56:38.783Z,50.80
2023-05-25T04:59:05.310Z,50.50
2023-05-25T05:01:31.832Z,50.70
2023-05-25T05:03:58.424Z,51.20
2023-05-25T05:06:25.035Z,51.20
2023-05-25T05:08:51.523Z,50.90
2023-05-25T05:11:18.049Z,51.00
2023-05-25T05:13:44.580Z,50.80
2023-05-25T05:16:11.165Z,51.10
2023-05-25T05:18:37.696Z,50.50
2023-05-25T05:21:04.243Z,51.20
2023-05-25T05:23:30.798Z,51.00
2023-05-25T05:25:57.319Z,50.80
2023-05-25T05:28:23.862Z,51.20
2023-05-25T05:30:50.360Z,51.10
2023-05-25T05:38:11.379Z,50.80
2023-05-25T05:40:37.923Z,50.90
2023-05-25T05:43:04.487Z,51.10
2023-05-25T05:45:31.071Z,51.00
2023-05-25T05:47:57.718Z,50.50
2023-05-25T05:50:24.344Z,50.80
2023-05-25T05:52:50.905Z,50.50
2023-05-25T05:55:17.442Z,51.00
2023-05-25T05:57:43.930Z,50.70
2023-05-25T06:00:10.500Z,51.10
2023-05-25T06:02:38.682Z,51.00
2023-05-25T06:07:34.526Z,50.70
2023-05-25T06:10:01.024Z,50.90
2023-05-25T06:12:27.548Z,51.10
2023-05-25T06:14:54.073Z,50.60
2023-05-25T06:17:20.623Z,51.10
2023-05-25T06:19:47.120Z,50.80
2023-05-25T06:22:13.609Z,50.60
2023-05-25T06:24:40.145Z,50.80
2023-05-25T06:29:33.691Z,50.80
2023-05-25T06:32:00.283Z,50.80
2023-05-25T06:34:26.887Z,51.10
2023-05-25T06:36:53.442Z,50.80
2023-05-25T06:39:19.939Z,51.20
2023-05-25T06:41:46.432Z,51.00
2023-05-25T06:44:12.916Z,50.70
2023-05-25T06:46:39.520Z,50.60
2023-05-25T06:49:06.175Z,51.20
2023-05-25T06:51:32.887Z,50.90
2023-05-25T06:53:59.374Z,50.70
2023-05-25T06:56:25.868Z,51.20
2023-05-25T06:58:52.375Z,50.90
2023-05-25T07:01:19.006Z,51.20
2023-05-25T07:03:45.644Z,50.80
2023-05-25T07:06:12.196Z,50.90
2023-05-25T07:08:38.746Z,50.50
2023-05-25T07:11:05.346Z,50.80
2023-05-25T07:13:31.886Z,50.70
2023-05-25T07:18:25.630Z,50.50
2023-05-25T07:20:52.163Z,51.00
2023-05-25T07:23:18.650Z,50.60
2023-05-25T07:25:45.353Z,50.80
2023-05-25T07:28:12.093Z,50.10
2023-05-25T07:30:38.595Z,50.50
2023-05-25T07:33:05.167Z,50.80
2023-05-25T07:35:31.701Z,50.90
2023-05-25T07:37:58.205Z,50.50
2023-05-25T07:40:24.704Z,51.10
2023-05-25T07:42:51.244Z,50.80
2023-05-25T07:45:17.845Z,51.00
2023-05-25T07:47:44.401Z,51.10
2023-05-25T07:50:11.036Z,51.10
2023-05-25T07:52:37.568Z,51.50
2023-05-25T07:55:04.411Z,51.40
2023-05-25T07:57:30.959Z,50.70
2023-05-25T07:59:57.557Z,51.10
2023-05-25T08:02:24.146Z,51.20
2023-05-25T08:07:17.832Z,51.20
2023-05-25T08:09:44.405Z,51.10
2023-05-25T08:12:30.115Z,51.20
2023-05-25T08:14:57.430Z,51.20
2023-05-25T08:19:51.174Z,51.10
2023-05-25T08:22:17.757Z,51.10
2023-05-25T08:24:44.341Z,50.70
2023-05-25T08:27:10.865Z,51.50
2023-05-25T08:29:37.378Z,51.20
2023-05-25T08:32:03.869Z,51.10
2023-05-25T08:34:30.363Z,50.90
2023-05-25T08:36:56.899Z,51.10
2023-05-25T08:39:23.449Z,51.20
2023-05-25T08:44:16.992Z,51.20
2023-05-25T08:46:43.520Z,51.50
2023-05-25T08:49:10.207Z,51.70
2023-05-25T08:51:36.855Z,51.20
2023-05-25T08:56:30.445Z,51.20
2023-05-25T08:58:56.980Z,51.10
2023-05-25T09:01:23.573Z,51.10
2023-05-25T09:03:50.235Z,50.90
2023-05-25T09:06:16.805Z,51.00
2023-05-25T09:08:43.303Z,51.00
2023-05-25T09:11:10.026Z,51.20
2023-05-25T09:13:36.781Z,51.70
2023-05-25T09:16:03.378Z,50.90
2023-05-25T09:18:29.992Z,51.10
2023-05-25T09:20:57.084Z,52.20
2023-05-25T09:23:24.049Z,51.60
2023-05-25T09:25:50.603Z,51.30
2023-05-25T09:28:26.914Z,51.70
2023-05-25T09:30:54.296Z,51.10
2023-05-25T09:33:20.936Z,51.30
2023-05-25T09:35:47.494Z,51.00
2023-05-25T09:38:14.175Z,51.30
2023-05-25T09:40:40.810Z,51.20
2023-05-25T09:43:07.377Z,51.20
2023-05-25T09:45:35.512Z,51.00
2023-05-25T09:50:30.224Z,51.10
2023-05-25T09:52:56.781Z,51.20
2023-05-25T09:55:23.425Z,51.10
2023-05-25T09:57:49.977Z,51.20
2023-05-25T10:00:16.582Z,51.60
2023-05-25T10:02:43.265Z,51.00
2023-05-25T10:05:09.942Z,51.00
2023-05-25T10:07:36.516Z,51.60
2023-05-25T10:10:03.087Z,51.20
2023-05-25T10:12:29.617Z,51.50
2023-05-25T10:14:56.166Z,51.30
2023-05-25T10:17:22.821Z,51.50
2023-05-25T10:19:49.429Z,51.60
2023-05-25T10:22:15.965Z,51.80
2023-05-25T10:27:22.417Z,52.80
2023-05-25T10:29:53.238Z,51.90
2023-05-25T10:32:19.820Z,51.70
2023-05-25T10:34:46.363Z,51.80
2023-05-25T10:37:12.911Z,51.80
2023-05-25T10:39:39.428Z,52.50
2023-05-25T10:42:05.963Z,51.80
2023-05-25T10:44:32.522Z,52.00
2023-05-25T10:46:59.122Z,51.90
2023-05-25T10:49:25.675Z,51.70
2023-05-25T10:51:52.208Z,51.70
2023-05-25T10:54:18.796Z,51.80
2023-05-25T10:56:46.354Z,51.90
2023-05-25T10:59:12.981Z,51.70
2023-05-25T11:01:39.578Z,52.10
2023-05-25T11:04:06.177Z,52.30
2023-05-25T11:06:32.823Z,51.50
2023-05-25T11:08:59.458Z,51.70
2023-05-25T11:11:25.957Z,51.80
2023-05-25T11:13:52.504Z,51.50
2023-05-25T11:16:19.070Z,52.20
2023-05-25T11:18:45.644Z,51.90
2023-05-25T11:21:12.128Z,51.70
2023-05-25T11:23:38.631Z,51.70
2023-05-25T11:28:32.259Z,51.70
2023-05-25T11:30:58.820Z,52.20
2023-05-25T11:33:25.380Z,51.80
2023-05-25T11:35:51.920Z,51.80
2023-05-25T11:38:18.409Z,51.50
2023-05-25T11:40:45.009Z,52.20
2023-05-25T11:43:11.508Z,51.70
2023-05-25T11:48:05.244Z,51.80
2023-05-25T11:50:31.751Z,52.20
2023-05-25T11:52:58.268Z,52.20
2023-05-25T11:55:24.790Z,51.60
2023-05-25T11:57:51.284Z,51.60
2023-05-25T12:00:17.785Z,51.60
2023-05-25T12:02:44.414Z,51.60
2023-05-25T12:05:11.410Z,51.60
2023-05-25T12:07:38.015Z,51.60
2023-05-25T12:10:04.500Z,51.60
2023-05-25T12:12:30.983Z,51.60
2023-05-25T12:14:59.028Z,51.30
2023-05-25T12:19:52.721Z,51.20
2023-05-25T12:22:19.270Z,51.50
2023-05-25T12:24:45.810Z,52.00
2023-05-25T12:27:13.924Z,51.80
2023-05-25T12:29:40.485Z,51.50
2023-05-25T12:32:07.028Z,51.50
2023-05-25T12:34:33.552Z,51.60
2023-05-25T12:39:27.116Z,51.50
2023-05-25T12:44:21.675Z,51.90
2023-05-25T12:46:48.282Z,51.60
2023-05-25T12:51:41.855Z,51.50
2023-05-25T12:54:08.396Z,51.80
2023-05-25T12:56:34.938Z,51.40
2023-05-25T12:59:01.447Z,51.50
2023-05-25T13:01:27.988Z,52.00
2023-05-25T13:03:54.551Z,51.70
2023-05-25T13:06:21.104Z,51.80
2023-05-25T13:08:47.619Z,51.60
2023-05-25T13:11:15.117Z,51.50
2023-05-25T13:13:41.609Z,52.60
2023-05-25T13:16:08.165Z,51.80
2023-05-25T13:18:34.756Z,51.60
2023-05-25T13:21:01.581Z,51.70
2023-05-25T13:25:55.462Z,51.70
2023-05-25T13:28:22.011Z,51.40
2023-05-25T13:30:48.540Z,51.70
2023-05-25T13:33:15.101Z,52.10
2023-05-25T13:35:41.793Z,51.60
2023-05-25T13:38:08.691Z,51.30
2023-05-25T13:40:35.263Z,52.00
2023-05-25T13:43:01.836Z,51.70
2023-05-25T13:45:28.377Z,51.60
2023-05-25T13:47:55.042Z,51.70
2023-05-25T13:50:21.804Z,51.70
2023-05-25T13:52:48.326Z,51.50
2023-05-25T13:55:14.876Z,51.80
2023-05-25T13:57:41.453Z,51.60
2023-05-25T14:00:07.989Z,51.70
2023-05-25T14:02:34.569Z,51.70
2023-05-25T14:05:01.157Z,52.00
2023-05-25T14:07:27.671Z,51.60
2023-05-25T14:09:54.199Z,51.70
2023-05-25T14:12:20.768Z,51.60
2023-05-25T14:14:47.323Z,51.40
2023-05-25T14:17:13.848Z,51.80
2023-05-25T14:19:40.392Z,51.70
2023-05-25T14:24:36.575Z,52.00
2023-05-25T14:27:03.176Z,51.60
2023-05-25T14:29:29.688Z,51.70
2023-05-25T14:31:56.346Z,51.80
2023-05-25T14:34:22.950Z,51.60
2023-05-25T14:36:49.470Z,51.50
2023-05-25T14:39:17.299Z,51.50
2023-05-25T14:41:44.085Z,52.10
2023-05-25T14:44:10.665Z,51.60
2023-05-25T14:46:37.241Z,51.50
2023-05-25T14:49:03.948Z,51.70
2023-05-25T14:51:30.497Z,52.10
2023-05-25T14:53:57.053Z,51.50
2023-05-25T14:56:23.578Z,52.10
2023-05-25T14:58:50.076Z,51.80
2023-05-25T15:01:16.599Z,51.50
2023-05-25T15:03:43.312Z,51.70
2023-05-25T15:06:09.903Z,51.60
2023-05-25T15:08:36.427Z,52.00
2023-05-25T15:11:02.957Z,52.20
2023-05-25T15:13:29.474Z,51.80
2023-05-25T15:15:56.120Z,51.50
2023-05-25T15:18:22.820Z,51.70
2023-05-25T15:20:49.350Z,52.10
2023-05-25T15:23:15.904Z,51.80
2023-05-25T15:25:42.447Z,51.90
2023-05-25T15:28:08.964Z,52.30
2023-05-25T15:30:35.469Z,51.80
2023-05-25T15:33:02.137Z,52.30
2023-05-25T15:35:28.784Z,51.20
2023-05-25T15:37:55.273Z,51.60
2023-05-25T15:40:21.910Z,52.10
2023-05-25T15:42:48.501Z,52.40
2023-05-25T15:45:15.021Z,51.80
2023-05-25T15:47:41.577Z,50.70
2023-05-25T15:50:08.181Z,51.70
2023-05-25T15:52:34.670Z,51.30
2023-05-25T15:55:01.180Z,51.10
2023-05-25T15:57:27.660Z,51.90
2023-05-25T15:59:54.198Z,51.80
2023-05-25T16:02:20.770Z,51.70
2023-05-25T16:07:14.385Z,51.20
2023-05-25T16:09:40.867Z,51.10
2023-05-25T16:14:34.426Z,51.20
2023-05-25T16:17:00.973Z,51.80
2023-05-25T16:19:27.501Z,51.60
2023-05-25T16:21:53.986Z,51.30
2023-05-25T16:24:20.517Z,51.60
2023-05-25T16:26:47.021Z,51.60
2023-05-25T16:29:13.497Z,51.90
2023-05-25T16:31:40.040Z,51.70
2023-05-25T16:34:06.593Z,51.90
2023-05-25T16:36:33.094Z,51.40
2023-05-25T16:38:59.601Z,51.30
2023-05-25T16:41:26.105Z,50.50
2023-05-25T16:43:52.622Z,51.10
2023-05-25T16:46:19.180Z,51.00
2023-05-25T16:48:45.890Z,51.10
2023-05-25T16:51:12.416Z,51.10
2023-05-25T16:53:38.975Z,51.30
2023-05-25T16:56:05.510Z,52.00
2023-05-25T16:58:32.037Z,51.90
2023-05-25T17:00:58.622Z,51.40
2023-05-25T17:03:25.230Z,51.10
2023-05-25T17:05:53.811Z,51.40
2023-05-25T17:08:20.450Z,51.80
2023-05-25T17:10:46.940Z,51.70
2023-05-25T17:13:13.482Z,51.60
2023-05-25T17:15:39.999Z,51.80
2023-05-25T17:18:06.564Z,51.40
2023-05-25T17:20:33.141Z,51.80
2023-05-25T17:22:59.688Z,52.00
2023-05-25T17:25:26.170Z,51.50
2023-05-25T17:27:52.669Z,51.40
2023-05-25T17:32:46.254Z,51.80
2023-05-25T17:35:12.878Z,51.50
2023-05-25T17:37:39.366Z,52.40
2023-05-25T17:40:05.904Z,51.30
2023-05-25T17:42:32.426Z,50.80
2023-05-25T17:44:58.925Z,50.60
2023-05-25T17:47:25.540Z,50.50
2023-05-25T17:49:52.201Z,50.40
2023-05-25T17:52:18.752Z,50.40
2023-05-25T17:54:45.326Z,50.80
2023-05-25T17:57:11.812Z,50.70
2023-05-25T17:59:38.322Z,50.50
2023-05-25T18:02:04.941Z,50.80
2023-05-25T18:04:31.629Z,51.90
2023-05-25T18:06:58.174Z,50.90
2023-05-25T18:09:24.684Z,50.80
2023-05-25T18:11:52.973Z,50.90
2023-05-25T18:16:48.041Z,51.10
2023-05-25T18:19:14.614Z,51.50
2023-05-25T18:21:41.131Z,51.60
2023-05-25T18:24:07.661Z,51.20
2023-05-25T18:26:34.206Z,51.20
2023-05-25T18:29:00.720Z,51.60
2023-05-25T18:31:27.269Z,52.20
2023-05-25T18:33:53.855Z,51.40
2023-05-25T18:36:20.333Z,51.90
2023-05-25T18:38:46.864Z,51.90
2023-05-25T18:41:13.428Z,51.80
2023-05-25T18:46:07.033Z,51.80
2023-05-25T18:48:33.594Z,51.40
2023-05-25T18:51:00.146Z,51.30
2023-05-25T18:53:28.527Z,51.50
2023-05-25T18:55:55.048Z,51.80
2023-05-25T18:58:21.572Z,51.40
2023-05-25T19:00:48.114Z,52.20
2023-05-25T19:03:14.766Z,51.70
2023-05-25T19:05:41.411Z,51.40
2023-05-25T19:08:08.085Z,51.70
2023-05-25T19:10:34.598Z,51.90
2023-05-25T19:13:01.154Z,52.20
2023-05-25T19:17:54.748Z,52.00
2023-05-25T19:20:21.335Z,51.90
2023-05-25T19:22:47.956Z,51.60
2023-05-25T19:25:14.460Z,51.80
2023-05-25T19:27:40.968Z,52.00
2023-05-25T19:30:07.513Z,52.20
2023-05-25T19:35:01.246Z,51.90
2023-05-25T19:39:54.850Z,51.90
2023-05-25T19:42:21.371Z,52.10
2023-05-25T19:44:47.916Z,51.80
2023-05-25T19:47:14.409Z,51.90
2023-05-25T19:49:40.962Z,52.00
2023-05-25T19:52:07.476Z,52.10
2023-05-25T19:54:34.016Z,52.10
2023-05-25T19:57:00.556Z,52.10
2023-05-25T19:59:27.079Z,52.20
2023-05-25T20:01:53.601Z,53.00
2023-05-25T20:04:20.366Z,53.20
2023-05-25T20:06:46.917Z,53.70
2023-05-25T20:09:13.436Z,53.70
2023-05-25T20:14:07.020Z,53.60
2023-05-25T20:16:33.622Z,53.60
2023-05-25T20:21:27.228Z,54.10
2023-05-25T20:23:53.717Z,54.10
2023-05-25T20:26:20.222Z,54.10
2023-05-25T20:28:46.738Z,54.60
2023-05-25T20:31:13.298Z,54.60
2023-05-25T20:33:39.866Z,53.90
2023-05-25T20:36:06.377Z,54.20
2023-05-25T20:38:32.870Z,54.10
2023-05-25T20:40:59.353Z,54.40
2023-05-25T20:43:25.858Z,53.90
2023-05-25T20:45:52.374Z,54.30
2023-05-25T20:48:18.880Z,54.50
2023-05-25T20:50:45.379Z,54.00
2023-05-25T20:53:11.900Z,54.20
2023-05-25T20:55:38.469Z,54.50
2023-05-25T20:58:05.014Z,54.20
2023-05-25T21:00:31.547Z,54.40
2023-05-25T21:02:58.153Z,54.50
2023-05-25T21:05:24.783Z,54.40
2023-05-25T21:07:51.327Z,54.20
2023-05-25T21:10:17.866Z,54.80
2023-05-25T21:12:44.365Z,55.00
2023-05-25T21:17:37.950Z,55.10
2023-05-25T21:20:04.566Z,55.40
2023-05-25T21:24:58.197Z,55.40
2023-05-25T21:27:24.731Z,54.90
2023-05-25T21:29:51.245Z,55.70
2023-05-25T21:32:17.744Z,55.60
2023-05-25T21:34:44.284Z,55.80
2023-05-25T21:37:10.837Z,55.90
2023-05-25T21:39:37.500Z,56.10
2023-05-25T21:42:04.005Z,55.90
2023-05-25T21:46:57.672Z,56.00
2023-05-25T21:49:24.214Z,55.90
2023-05-25T21:51:50.693Z,56.10
2023-05-25T21:54:17.204Z,56.50
2023-05-25T21:56:43.756Z,56.50
2023-05-25T21:59:10.297Z,56.50
2023-05-25T22:01:36.884Z,56.30
2023-05-25T22:04:03.438Z,56.60
2023-05-25T22:06:29.936Z,56.80
2023-05-25T22:08:56.451Z,56.60
2023-05-25T22:11:23.027Z,56.50
2023-05-25T22:13:49.538Z,56.50
2023-05-25T22:16:16.054Z,56.50
2023-05-25T22:18:42.654Z,56.30
2023-05-25T22:21:09.138Z,56.90
2023-05-25T22:23:35.665Z,56.30
2023-05-25T22:26:02.193Z,56.50
2023-05-25T22:28:28.695Z,57.10
2023-05-25T22:30:55.234Z,56.10
2023-05-25T22:33:21.743Z,56.50
2023-05-25T22:35:48.266Z,55.80
2023-05-25T22:38:14.797Z,56.70
2023-05-25T22:40:41.328Z,56.40
2023-05-25T22:43:07.847Z,56.50
2023-05-25T22:45:34.398Z,56.80
2023-05-25T22:48:00.935Z,57.20
2023-05-25T22:50:27.468Z,57.60
2023-05-25T22:52:53.953Z,57.30
2023-05-25T22:55:20.473Z,56.80
2023-05-25T23:00:14.046Z,57.10
2023-05-25T23:02:40.600Z,56.70
2023-05-25T23:05:07.142Z,57.10
2023-05-25T23:07:33.747Z,56.90
2023-05-25T23:10:00.255Z,56.90
2023-05-25T23:12:26.787Z,57.30
2023-05-25T23:14:53.269Z,57.30
2023-05-25T23:17:19.758Z,57.00
2023-05-25T23:19:46.253Z,56.90
2023-05-25T23:22:12.791Z,56.30
2023-05-25T23:24:39.318Z,56.90
2023-05-25T23:27:05.833Z,56.80
2023-05-25T23:31:59.466Z,56.80
2023-05-25T23:34:26.092Z,56.60
2023-05-25T23:36:52.608Z,57.40
2023-05-25T23:39:19.114Z,56.80
2023-05-25T23:41:45.596Z,56.70
2023-05-25T23:44:12.086Z,57.30
2023-05-25T23:46:38.673Z,56.90
2023-05-25T23:49:05.263Z,56.50
2023-05-25T23:51:31.793Z,57.20
2023-05-25T23:53:58.305Z,56.70
2023-05-25T23:56:24.806Z,56.60
2023-05-25T23:58:51.362Z,56.60
